createdAt,value
2022-11-08T00:00:00.266Z,100220.53
2022-11-08T00:02:28.279Z,100228.06
2022-11-08T00:04:57.317Z,100223.81
2022-11-08T00:07:42.397Z,100220.47
2022-11-08T00:10:28.972Z,100222.19
2022-11-08T00:13:15.298Z,100221.72
2022-11-08T00:15:43.119Z,100220.59
2022-11-08T00:18:10.673Z,100218.75
2022-11-08T00:20:39.729Z,100220.34
2022-11-08T00:23:08.286Z,100223.81
2022-11-08T00:25:35.893Z,100223.31
2022-11-08T00:28:03.425Z,100224.25
2022-11-08T00:30:30.987Z,100220.78
2022-11-08T00:32:58.743Z,100220.16
2022-11-08T00:35:26.371Z,100220.56
2022-11-08T00:37:55.432Z,100214.63
2022-11-08T00:40:24.114Z,100217.78
2022-11-08T00:42:51.609Z,100221.00
2022-11-08T00:45:19.362Z,100221.88
2022-11-08T00:47:48.001Z,100223.16
2022-11-08T00:50:15.969Z,100218.75
2022-11-08T00:52:43.541Z,100213.63
2022-11-08T00:55:12.841Z,100221.50
2022-11-08T00:57:58.333Z,100215.72
2022-11-08T01:00:27.075Z,100215.56
2022-11-08T01:03:09.412Z,100214.53
2022-11-08T01:05:38.377Z,100214.38
2022-11-08T01:08:05.950Z,100210.69
2022-11-08T01:10:35.264Z,100212.38
2022-11-08T01:13:02.947Z,100204.25
2022-11-08T01:15:35.656Z,100207.19
2022-11-08T01:18:03.308Z,100214.03
2022-11-08T01:20:30.823Z,100204.69
2022-11-08T01:22:58.754Z,100209.94
2022-11-08T01:25:26.540Z,100206.88
2022-11-08T01:27:55.438Z,100214.63
2022-11-08T01:30:23.535Z,100205.97
2022-11-08T01:32:51.240Z,100207.28
2022-11-08T01:35:18.790Z,100208.22
2022-11-08T01:37:46.367Z,100203.59
2022-11-08T01:40:15.084Z,100201.19
2022-11-08T01:42:42.604Z,100200.78
2022-11-08T01:45:12.687Z,100203.66
2022-11-08T01:47:40.386Z,100201.97
2022-11-08T01:50:09.646Z,100195.03
2022-11-08T01:52:38.898Z,100190.09
2022-11-08T01:55:14.126Z,100201.41
2022-11-08T01:57:45.569Z,100196.06
2022-11-08T02:00:15.330Z,100189.06
2022-11-08T02:02:48.002Z,100193.69
2022-11-08T02:05:26.579Z,100190.03
2022-11-08T02:07:57.701Z,100184.91
2022-11-08T02:10:31.286Z,100187.38
2022-11-08T02:13:03.747Z,100181.13
2022-11-08T02:15:34.061Z,100194.44
2022-11-08T02:18:02.022Z,100183.97
2022-11-08T02:20:29.636Z,100182.31
2022-11-08T02:23:01.571Z,100173.22
2022-11-08T02:25:30.524Z,100170.25
2022-11-08T02:27:58.087Z,100167.84
2022-11-08T02:30:26.594Z,100174.19
2022-11-08T02:32:55.188Z,100166.53
2022-11-08T02:35:22.922Z,100167.34
2022-11-08T02:37:50.525Z,100173.09
2022-11-08T02:40:18.176Z,100169.78
2022-11-08T02:42:47.188Z,100162.38
2022-11-08T02:45:14.840Z,100157.94
2022-11-08T02:47:42.389Z,100158.06
2022-11-08T02:50:10.920Z,100153.47
2022-11-08T02:52:39.222Z,100148.09
2022-11-08T02:55:07.493Z,100140.75
2022-11-08T02:57:35.701Z,100146.31
2022-11-08T03:00:05.607Z,100140.78
2022-11-08T03:02:33.339Z,100146.94
2022-11-08T03:05:01.303Z,100146.81
2022-11-08T03:07:28.771Z,100145.88
2022-11-08T03:09:56.393Z,100146.16
2022-11-08T03:12:23.987Z,100140.75
2022-11-08T03:14:51.676Z,100132.84
2022-11-08T03:17:20.617Z,100129.66
2022-11-08T03:19:48.112Z,100133.22
2022-11-08T03:22:16.574Z,100133.41
2022-11-08T03:24:44.158Z,100126.88
2022-11-08T03:27:14.085Z,100125.81
2022-11-08T03:29:41.747Z,100124.50
2022-11-08T03:32:10.402Z,100121.38
2022-11-08T03:34:39.554Z,100114.97
2022-11-08T03:37:07.460Z,100119.13
2022-11-08T03:39:37.005Z,100119.59
2022-11-08T03:42:04.943Z,100117.56
2022-11-08T03:44:33.155Z,100117.47
2022-11-08T03:47:01.141Z,100114.25
2022-11-08T03:49:29.238Z,100110.50
2022-11-08T03:51:58.249Z,100116.03
2022-11-08T03:54:25.795Z,100111.75
2022-11-08T03:56:53.343Z,100109.44
2022-11-08T03:59:21.044Z,100106.78
2022-11-08T04:01:48.876Z,100102.44
2022-11-08T04:04:16.453Z,100100.72
2022-11-08T04:06:44.045Z,100102.84
2022-11-08T04:09:14.739Z,100105.34
2022-11-08T04:12:17.485Z,100097.31
2022-11-08T04:15:03.098Z,100101.97
2022-11-08T04:17:44.547Z,100092.53
2022-11-08T04:20:29.914Z,100091.75
2022-11-08T04:22:57.624Z,100091.75
2022-11-08T04:25:29.978Z,100092.63
2022-11-08T04:28:00.179Z,100090.22
2022-11-08T04:30:27.838Z,100081.78
2022-11-08T04:32:57.199Z,100074.53
2022-11-08T04:35:25.095Z,100071.69
2022-11-08T04:37:52.626Z,100073.03
2022-11-08T04:40:20.337Z,100072.44
2022-11-08T04:42:49.338Z,100068.19
2022-11-08T04:45:17.373Z,100072.34
2022-11-08T04:47:48.429Z,100072.00
2022-11-08T04:50:16.891Z,100063.78
2022-11-08T04:52:44.555Z,100053.06
2022-11-08T04:55:12.657Z,100059.03
2022-11-08T04:57:40.226Z,100050.84
2022-11-08T05:00:11.748Z,100041.88
2022-11-08T05:02:39.628Z,100037.44
2022-11-08T05:05:08.468Z,100031.09
2022-11-08T05:07:36.201Z,100023.25
2022-11-08T05:10:04.276Z,100018.28
2022-11-08T05:12:32.043Z,100016.59
2022-11-08T05:15:00.159Z,100005.13
2022-11-08T05:17:29.509Z,100011.31
2022-11-08T05:20:29.476Z,100012.13
2022-11-08T05:23:19.372Z,100008.94
2022-11-08T05:25:47.605Z,99999.25
2022-11-08T05:28:15.710Z,99998.28
2022-11-08T05:30:43.698Z,99998.19
2022-11-08T05:33:15.897Z,99987.25
2022-11-08T05:35:43.376Z,99983.53
2022-11-08T05:38:10.964Z,99986.66
2022-11-08T05:40:38.460Z,99975.53
2022-11-08T05:43:06.698Z,99975.09
2022-11-08T05:45:34.427Z,99962.31
2022-11-08T05:48:03.775Z,99966.91
2022-11-08T05:50:34.378Z,99966.38
2022-11-08T05:53:02.243Z,99960.47
2022-11-08T05:55:30.038Z,99956.50
2022-11-08T05:57:57.840Z,99962.28
2022-11-08T06:00:26.357Z,99960.16
2022-11-08T06:02:53.981Z,99960.63
2022-11-08T06:05:22.625Z,99958.75
2022-11-08T06:07:53.908Z,99960.31
2022-11-08T06:10:23.464Z,99955.16
2022-11-08T06:12:51.032Z,99955.63
2022-11-08T06:15:19.721Z,99958.50
2022-11-08T06:17:48.373Z,99954.81
2022-11-08T06:20:16.622Z,99951.06
2022-11-08T06:22:45.047Z,99946.41
2022-11-08T06:25:13.983Z,99935.72
2022-11-08T06:27:42.739Z,99926.38
2022-11-08T06:30:11.092Z,99922.88
2022-11-08T06:32:38.845Z,99907.19
2022-11-08T06:35:07.447Z,99918.41
2022-11-08T06:37:34.983Z,99908.09
2022-11-08T06:40:02.570Z,99909.56
2022-11-08T06:42:32.615Z,99899.75
2022-11-08T06:45:00.343Z,99907.19
2022-11-08T06:47:28.024Z,99893.38
2022-11-08T06:49:55.593Z,99888.84
2022-11-08T06:52:23.316Z,99899.00
2022-11-08T06:54:52.002Z,99882.00
2022-11-08T06:57:19.540Z,99886.38
2022-11-08T06:59:48.486Z,99883.94
2022-11-08T07:02:17.200Z,99875.78
2022-11-08T07:04:45.101Z,99877.56
2022-11-08T07:07:12.620Z,99867.94
2022-11-08T07:09:40.205Z,99868.13
2022-11-08T07:12:07.848Z,99868.69
2022-11-08T07:14:35.966Z,99866.91
2022-11-08T07:17:05.071Z,99875.78
2022-11-08T07:19:32.701Z,99872.06
2022-11-08T07:22:00.428Z,99878.28
2022-11-08T07:24:28.045Z,99877.47
2022-11-08T07:26:56.286Z,99873.38
2022-11-08T07:29:23.790Z,99889.25
2022-11-08T07:31:51.566Z,99884.47
2022-11-08T07:34:20.723Z,99880.72
2022-11-08T07:36:48.558Z,99879.69
2022-11-08T07:39:16.236Z,99884.13
2022-11-08T07:41:44.545Z,99876.75
2022-11-08T07:44:12.072Z,99880.28
2022-11-08T07:46:39.943Z,99895.19
2022-11-08T07:49:07.671Z,99894.38
2022-11-08T07:51:36.811Z,99890.66
2022-11-08T07:54:04.581Z,99891.94
2022-11-08T07:56:32.257Z,99897.41
2022-11-08T07:59:00.088Z,99897.75
2022-11-08T08:01:28.772Z,99895.78
2022-11-08T08:03:56.329Z,99895.66
2022-11-08T08:06:24.324Z,99897.63
2022-11-08T08:08:53.510Z,99893.22
2022-11-08T08:11:21.467Z,99893.69
2022-11-08T08:13:49.297Z,99875.94
2022-11-08T08:16:16.886Z,99876.75
2022-11-08T08:18:45.031Z,99880.78
2022-11-08T08:21:12.555Z,99880.56
2022-11-08T08:23:40.130Z,99880.06
2022-11-08T08:26:09.036Z,99887.53
2022-11-08T08:28:38.599Z,99880.88
2022-11-08T08:31:06.750Z,99883.41
2022-11-08T08:33:34.906Z,99876.03
2022-11-08T08:36:02.682Z,99883.50
2022-11-08T08:38:31.027Z,99871.69
2022-11-08T08:41:00.105Z,99870.19
2022-11-08T08:43:29.580Z,99875.31
2022-11-08T08:45:59.961Z,99861.44
2022-11-08T08:48:28.703Z,99855.88
2022-11-08T08:50:56.501Z,99857.22
2022-11-08T08:53:25.022Z,99853.16
2022-11-08T08:55:53.522Z,99852.19
2022-11-08T08:58:21.663Z,99849.06
2022-11-08T09:03:38.423Z,99843.53
2022-11-08T09:06:06.279Z,99840.91
2022-11-08T09:08:33.816Z,99843.59
2022-11-08T09:11:02.557Z,99839.13
2022-11-08T09:13:31.765Z,99844.75
2022-11-08T09:16:02.621Z,99837.97
2022-11-08T09:18:30.494Z,99830.16
2022-11-08T09:20:58.789Z,99828.97
2022-11-08T09:23:26.777Z,99831.25
2022-11-08T09:25:58.008Z,99826.53
2022-11-08T09:28:30.764Z,99819.56
2022-11-08T09:31:02.749Z,99819.63
2022-11-08T09:33:30.696Z,99812.34
2022-11-08T09:36:00.347Z,99824.16
2022-11-08T09:38:28.191Z,99823.75
2022-11-08T09:41:08.742Z,99822.34
2022-11-08T09:43:48.266Z,99825.50
2022-11-08T09:46:22.214Z,99834.44
2022-11-08T09:48:50.296Z,99838.31
2022-11-08T09:51:21.370Z,99837.44
2022-11-08T09:53:53.518Z,99839.47
2022-11-08T09:56:26.187Z,99843.84
2022-11-08T09:58:55.283Z,99837.06
2022-11-08T10:01:27.234Z,99845.91
2022-11-08T10:03:56.742Z,99841.94
2022-11-08T10:07:03.890Z,99846.50
2022-11-08T10:09:43.791Z,99848.53
2022-11-08T10:12:17.870Z,99837.31
2022-11-08T10:15:02.386Z,99823.16
2022-11-08T10:17:37.908Z,99810.03
2022-11-08T10:20:11.696Z,99814.91
2022-11-08T10:22:48.423Z,99808.72
2022-11-08T10:25:23.033Z,99824.13
2022-11-08T10:27:53.358Z,99823.22
2022-11-08T10:30:22.319Z,99827.53
2022-11-08T10:32:53.491Z,99822.66
2022-11-08T10:35:25.616Z,99806.75
2022-11-08T10:37:54.538Z,99797.31
2022-11-08T10:40:32.670Z,99795.94
2022-11-08T10:43:09.107Z,99792.97
2022-11-08T10:45:38.374Z,99799.41
2022-11-08T10:48:07.688Z,99798.88
2022-11-08T10:50:43.057Z,99777.28
2022-11-08T10:53:17.884Z,99800.00
2022-11-08T10:55:52.634Z,99787.56
2022-11-08T10:58:29.978Z,99777.81
2022-11-08T11:01:03.814Z,99768.38
2022-11-08T11:03:33.023Z,99759.19
2022-11-08T11:06:03.714Z,99767.81
2022-11-08T11:08:31.877Z,99774.06
2022-11-08T11:11:22.800Z,99784.34
2022-11-08T11:14:06.975Z,99769.72
2022-11-08T11:16:37.220Z,99794.31
2022-11-08T11:19:08.491Z,99790.81
2022-11-08T11:21:40.355Z,99784.06
2022-11-08T11:24:14.260Z,99780.53
2022-11-08T11:26:46.997Z,99768.09
2022-11-08T11:29:20.245Z,99760.53
2022-11-08T11:31:49.697Z,99748.66
2022-11-08T11:34:45.243Z,99768.94
2022-11-08T11:37:20.250Z,99759.47
2022-11-08T11:39:56.218Z,99749.44
2022-11-08T11:42:45.010Z,99763.78
2022-11-08T11:45:19.828Z,99768.66
2022-11-08T11:47:53.706Z,99764.31
2022-11-08T11:50:34.226Z,99778.38
2022-11-08T11:53:04.752Z,99780.00
2022-11-08T11:55:44.097Z,99765.66
2022-11-08T11:58:24.772Z,99766.97
2022-11-08T12:00:57.164Z,99766.44
2022-11-08T12:03:35.946Z,99758.31
2022-11-08T12:06:22.271Z,99758.84
2022-11-08T12:09:01.992Z,99767.81
2022-11-08T12:11:41.046Z,99772.66
2022-11-08T12:14:18.677Z,99764.25
2022-11-08T12:16:49.680Z,99756.44
2022-11-08T12:19:27.881Z,99768.09
2022-11-08T12:22:01.537Z,99754.56
2022-11-08T12:24:38.321Z,99754.59
2022-11-08T12:27:11.549Z,99747.00
2022-11-08T12:29:45.997Z,99736.69
2022-11-08T12:32:33.664Z,99763.22
2022-11-08T12:35:15.225Z,99768.91
2022-11-08T12:37:56.080Z,99786.22
2022-11-08T12:40:28.671Z,99783.22
2022-11-08T12:43:06.455Z,99764.06
2022-11-08T12:45:51.039Z,99766.47
2022-11-08T12:48:28.086Z,99762.72
2022-11-08T12:51:04.256Z,99775.13
2022-11-08T12:53:42.917Z,99756.19
2022-11-08T12:56:14.689Z,99770.81
2022-11-08T12:58:44.330Z,99766.75
2022-11-08T13:01:14.055Z,99770.00
2022-11-08T13:04:10.172Z,99773.53
2022-11-08T13:06:43.232Z,99757.56
2022-11-08T13:09:18.904Z,99767.56
2022-11-08T13:11:51.170Z,99777.25
2022-11-08T13:14:19.861Z,99768.34
2022-11-08T13:17:17.679Z,99739.44
2022-11-08T13:20:01.949Z,99740.53
2022-11-08T13:22:44.114Z,99751.34
2022-11-08T13:25:41.392Z,99750.53
2022-11-08T13:28:40.718Z,99748.09
2022-11-08T13:31:30.793Z,99745.94
2022-11-08T13:34:40.219Z,99731.63
2022-11-08T13:37:52.187Z,99723.22
2022-11-08T13:40:40.575Z,99718.34
2022-11-08T13:43:24.371Z,99703.50
2022-11-08T13:45:52.020Z,99707.00
2022-11-08T13:48:37.514Z,99705.41
2022-11-08T13:51:26.088Z,99681.09
2022-11-08T13:53:57.896Z,99694.84
2022-11-08T13:56:48.783Z,99684.31
2022-11-08T13:59:59.093Z,99697.50
2022-11-08T14:02:38.625Z,99715.31
2022-11-08T14:05:26.882Z,99710.19
2022-11-08T14:08:19.996Z,99706.69
2022-11-08T14:11:24.941Z,99715.03
2022-11-08T14:14:35.103Z,99708.59
2022-11-08T14:17:15.457Z,99712.38
2022-11-08T14:19:45.070Z,99715.88
2022-11-08T14:22:16.887Z,99721.81
2022-11-08T14:24:44.866Z,99709.72
2022-11-08T14:27:14.527Z,99708.63
2022-11-08T14:29:44.043Z,99707.75
2022-11-08T14:32:18.781Z,99685.34
2022-11-08T14:34:46.827Z,99683.97
2022-11-08T14:37:20.203Z,99702.56
2022-11-08T14:39:48.179Z,99686.38
2022-11-08T14:42:22.232Z,99704.16
2022-11-08T14:44:53.591Z,99690.69
2022-11-08T14:47:26.179Z,99695.53
2022-11-08T14:49:54.084Z,99682.84
2022-11-08T14:52:25.696Z,99676.16
2022-11-08T14:55:01.320Z,99679.88
2022-11-08T14:57:35.451Z,99680.91
2022-11-08T15:00:10.785Z,99659.09
2022-11-08T15:02:38.796Z,99663.38
2022-11-08T15:05:07.079Z,99667.16
2022-11-08T15:07:35.037Z,99655.56
2022-11-08T15:10:10.810Z,99665.78
2022-11-08T15:12:41.799Z,99680.59
2022-11-08T15:15:20.948Z,99680.25
2022-11-08T15:18:09.013Z,99677.06
2022-11-08T15:20:36.725Z,99676.53
2022-11-08T15:23:23.261Z,99683.53
2022-11-08T15:25:57.254Z,99668.41
2022-11-08T15:28:26.564Z,99669.22
2022-11-08T15:30:58.230Z,99657.91
2022-11-08T15:33:27.378Z,99663.00
2022-11-08T15:35:55.067Z,99669.56
2022-11-08T15:38:29.536Z,99663.44
2022-11-08T15:40:59.004Z,99669.22
2022-11-08T15:43:41.396Z,99659.13
2022-11-08T15:46:38.109Z,99664.47
2022-11-08T15:49:16.633Z,99662.00
2022-11-08T15:51:45.742Z,99676.75
2022-11-08T15:54:14.069Z,99664.44
2022-11-08T15:56:42.040Z,99647.81
2022-11-08T15:59:20.900Z,99647.84
2022-11-08T16:02:04.073Z,99653.78
2022-11-08T16:04:31.729Z,99640.59
2022-11-08T16:06:59.274Z,99647.00
2022-11-08T16:09:26.838Z,99648.09
2022-11-08T16:11:54.642Z,99640.84
2022-11-08T16:14:24.826Z,99648.13
2022-11-08T16:16:54.118Z,99658.09
2022-11-08T16:19:23.402Z,99661.59
2022-11-08T16:21:52.423Z,99663.72
2022-11-08T16:24:20.368Z,99644.91
2022-11-08T16:26:48.242Z,99650.31
2022-11-08T16:29:22.142Z,99666.94
2022-11-08T16:31:50.566Z,99661.69
2022-11-08T16:34:21.110Z,99658.44
2022-11-08T16:36:49.867Z,99662.09
2022-11-08T16:39:19.264Z,99656.50
2022-11-08T16:41:46.844Z,99656.47
2022-11-08T16:44:14.485Z,99663.13
2022-11-08T16:46:43.348Z,99647.53
2022-11-08T16:49:21.010Z,99656.97
2022-11-08T16:51:49.109Z,99666.91
2022-11-08T16:54:19.596Z,99670.38
2022-11-08T16:56:48.279Z,99673.34
2022-11-08T16:59:15.858Z,99673.38
2022-11-08T17:01:44.062Z,99654.59
2022-11-08T17:04:12.408Z,99668.81
2022-11-08T17:06:41.287Z,99677.94
2022-11-08T17:09:09.434Z,99677.09
2022-11-08T17:11:38.493Z,99681.63
2022-11-08T17:14:06.424Z,99674.13
2022-11-08T17:16:35.020Z,99679.78
2022-11-08T17:19:04.134Z,99659.09
2022-11-08T17:21:44.697Z,99658.28
2022-11-08T17:24:20.844Z,99659.13
2022-11-08T17:26:50.496Z,99656.13
2022-11-08T17:29:18.082Z,99661.94
2022-11-08T17:31:46.002Z,99653.00
2022-11-08T17:34:13.693Z,99648.19
2022-11-08T17:36:41.272Z,99685.78
2022-11-08T17:39:09.394Z,99676.19
2022-11-08T17:41:39.183Z,99675.38
2022-11-08T17:44:06.780Z,99673.97
2022-11-08T17:46:35.431Z,99678.06
2022-11-08T17:49:03.122Z,99668.03
2022-11-08T17:51:31.152Z,99673.25
2022-11-08T17:53:58.681Z,99688.19
2022-11-08T17:56:26.455Z,99685.91
2022-11-08T17:58:58.171Z,99684.28
2022-11-08T18:01:26.113Z,99674.72
2022-11-08T18:03:54.145Z,99661.38
2022-11-08T18:06:21.922Z,99677.41
2022-11-08T18:08:51.316Z,99674.06
2022-11-08T18:11:18.894Z,99675.41
2022-11-08T18:13:46.943Z,99674.84
2022-11-08T18:16:17.492Z,99674.78
2022-11-08T18:18:46.843Z,99683.28
2022-11-08T18:21:15.582Z,99668.31
2022-11-08T18:23:45.217Z,99668.69
2022-11-08T18:26:13.930Z,99673.69
2022-11-08T18:28:42.649Z,99667.56
2022-11-08T18:31:12.376Z,99668.16
2022-11-08T18:33:41.975Z,99671.75
2022-11-08T18:36:11.565Z,99678.13
2022-11-08T18:38:44.584Z,99676.63
2022-11-08T18:41:13.482Z,99673.94
2022-11-08T18:43:41.322Z,99661.66
2022-11-08T18:46:13.256Z,99681.72
2022-11-08T18:48:42.429Z,99680.91
2022-11-08T18:51:12.658Z,99684.91
2022-11-08T18:53:41.036Z,99681.91
2022-11-08T18:56:09.609Z,99678.50
2022-11-08T18:58:37.260Z,99661.00
2022-11-08T19:01:05.726Z,99665.44
2022-11-08T19:03:34.530Z,99672.13
2022-11-08T19:06:03.493Z,99671.88
2022-11-08T19:08:31.617Z,99667.91
2022-11-08T19:11:01.078Z,99658.91
2022-11-08T19:13:30.248Z,99663.78
2022-11-08T19:15:58.793Z,99665.00
2022-11-08T19:18:27.201Z,99672.88
2022-11-08T19:20:56.341Z,99688.19
2022-11-08T19:23:26.160Z,99668.09
2022-11-08T19:25:57.874Z,99683.06
2022-11-08T19:28:29.048Z,99680.41
2022-11-08T19:30:59.281Z,99671.78
2022-11-08T19:33:28.891Z,99672.63
2022-11-08T19:35:56.731Z,99673.69
2022-11-08T19:38:25.714Z,99676.91
2022-11-08T19:40:53.524Z,99667.09
2022-11-08T19:43:21.636Z,99672.28
2022-11-08T19:45:54.270Z,99670.75
2022-11-08T19:48:22.241Z,99675.31
2022-11-08T19:50:50.693Z,99678.16
2022-11-08T19:53:18.456Z,99680.41
2022-11-08T19:55:47.396Z,99685.69
2022-11-08T19:58:15.520Z,99694.50
2022-11-08T20:00:43.872Z,99682.53
2022-11-08T20:03:11.525Z,99687.78
2022-11-08T20:05:39.057Z,99684.50
2022-11-08T20:08:08.525Z,99686.16
2022-11-08T20:10:37.862Z,99698.06
2022-11-08T20:13:08.835Z,99691.09
2022-11-08T20:15:36.540Z,99687.31
2022-11-08T20:18:04.373Z,99693.19
2022-11-08T20:20:32.328Z,99693.59
2022-11-08T20:23:00.938Z,99691.75
2022-11-08T20:25:28.610Z,99699.56
2022-11-08T20:27:56.140Z,99696.38
2022-11-08T20:30:25.360Z,99694.72
2022-11-08T20:32:53.162Z,99696.38
2022-11-08T20:35:23.559Z,99703.38
2022-11-08T20:37:51.505Z,99708.97
2022-11-08T20:40:19.350Z,99704.22
2022-11-08T20:42:47.702Z,99704.50
2022-11-08T20:45:15.511Z,99703.78
2022-11-08T20:47:44.515Z,99728.91
2022-11-08T20:50:12.160Z,99713.50
2022-11-08T20:52:40.737Z,99715.06
2022-11-08T20:55:09.058Z,99705.91
2022-11-08T20:57:36.605Z,99714.13
2022-11-08T21:00:13.120Z,99714.00
2022-11-08T21:02:41.391Z,99708.75
2022-11-08T21:05:10.662Z,99707.13
2022-11-08T21:08:01.841Z,99698.34
2022-11-08T21:10:42.214Z,99708.56
2022-11-08T21:13:11.141Z,99714.25
2022-11-08T21:15:38.973Z,99713.69
2022-11-08T21:18:06.557Z,99706.94
2022-11-08T21:20:35.587Z,99718.41
2022-11-08T21:23:03.147Z,99712.06
2022-11-08T21:25:31.806Z,99712.06
2022-11-08T21:27:59.931Z,99712.13
2022-11-08T21:30:28.209Z,99714.00
2022-11-08T21:32:55.769Z,99709.00
2022-11-08T21:35:23.535Z,99714.19
2022-11-08T21:37:52.783Z,99706.69
2022-11-08T21:40:20.297Z,99708.16
2022-11-08T21:42:49.012Z,99698.56
2022-11-08T21:45:17.107Z,99705.50
2022-11-08T21:47:44.726Z,99718.53
2022-11-08T21:50:13.566Z,99708.63
2022-11-08T21:52:41.447Z,99710.84
2022-11-08T21:55:11.705Z,99707.38
2022-11-08T21:57:39.418Z,99709.22
2022-11-08T22:00:09.242Z,99699.38
2022-11-08T22:02:37.065Z,99709.53
2022-11-08T22:05:05.432Z,99710.41
2022-11-08T22:07:33.287Z,99709.97
2022-11-08T22:10:01.364Z,99709.88
2022-11-08T22:12:30.467Z,99712.59
2022-11-08T22:14:58.330Z,99716.50
2022-11-08T22:17:25.915Z,99719.19
2022-11-08T22:19:53.920Z,99716.31
2022-11-08T22:22:22.735Z,99716.00
2022-11-08T22:24:51.119Z,99721.75
2022-11-08T22:27:19.685Z,99716.00
2022-11-08T22:29:51.526Z,99712.66
2022-11-08T22:32:19.940Z,99719.72
2022-11-08T22:34:47.488Z,99712.56
2022-11-08T22:37:15.041Z,99711.72
2022-11-08T22:39:42.855Z,99717.59
2022-11-08T22:42:10.518Z,99711.72
2022-11-08T22:44:38.047Z,99717.13
2022-11-08T22:47:07.080Z,99713.53
2022-11-08T22:49:34.875Z,99722.59
2022-11-08T22:52:02.457Z,99707.91
2022-11-08T22:54:30.043Z,99717.50
2022-11-08T22:56:57.910Z,99723.31
2022-11-08T22:59:25.506Z,99727.16
2022-11-08T23:01:53.112Z,99719.56
2022-11-08T23:04:22.075Z,99712.03
2022-11-08T23:06:49.716Z,99718.28
2022-11-08T23:09:17.255Z,99711.25
2022-11-08T23:12:02.961Z,99717.97
2022-11-08T23:14:47.920Z,99711.00
2022-11-08T23:17:15.599Z,99716.34
2022-11-08T23:20:02.282Z,99716.78
2022-11-08T23:22:47.360Z,99720.53
2022-11-08T23:25:15.189Z,99715.22
2022-11-08T23:28:00.433Z,99720.03
2022-11-08T23:30:45.833Z,99717.69
2022-11-08T23:33:13.459Z,99711.16
2022-11-08T23:36:02.859Z,99715.81
2022-11-08T23:38:30.923Z,99713.72
2022-11-08T23:41:17.539Z,99720.16
2022-11-08T23:44:02.731Z,99720.69
2022-11-08T23:46:30.478Z,99719.06
2022-11-08T23:48:58.448Z,99720.63
2022-11-08T23:51:27.927Z,99719.13
2022-11-08T23:53:55.486Z,99722.75
2022-11-08T23:56:24.150Z,99721.78
2022-11-08T23:58:52.082Z,99709.97
